createdAt,value
2022-08-31T00:02:43.136Z,21.51
2022-08-31T00:09:03.167Z,21.46
2022-08-31T00:15:26.144Z,21.33
2022-08-31T00:21:46.144Z,21.19
2022-08-31T00:28:09.172Z,21.11
2022-08-31T00:34:29.143Z,21.05
2022-08-31T00:40:52.247Z,20.72
2022-08-31T00:47:12.136Z,20.12
2022-08-31T00:53:35.149Z,19.55
2022-08-31T00:59:55.171Z,18.97
2022-08-31T01:06:18.147Z,18.5
2022-08-31T01:12:38.178Z,18.32
2022-08-31T01:19:01.145Z,18.21
2022-08-31T01:25:21.140Z,18.14
2022-08-31T01:31:44.385Z,18.13
2022-08-31T01:38:04.502Z,18.11
2022-08-31T01:44:27.168Z,18.1
2022-08-31T01:50:47.142Z,18.03
2022-08-31T01:57:10.135Z,17.99
2022-08-31T02:03:30.174Z,17.96
2022-08-31T02:09:53.142Z,17.87
2022-08-31T02:16:13.236Z,17.81
2022-08-31T02:22:36.141Z,17.74
2022-08-31T02:28:56.140Z,17.71
2022-08-31T02:35:19.164Z,17.67
2022-08-31T02:41:39.145Z,17.63
2022-08-31T02:48:02.164Z,17.61
2022-08-31T02:54:22.140Z,17.55
2022-08-31T03:00:45.209Z,17.46
2022-08-31T03:07:05.182Z,17.41
2022-08-31T03:13:28.148Z,17.35
2022-08-31T03:19:48.194Z,17.26
2022-08-31T03:26:11.179Z,17.22
2022-08-31T03:32:31.141Z,17.16
2022-08-31T03:38:54.189Z,17.16
2022-08-31T03:45:14.164Z,17.19
2022-08-31T03:51:37.173Z,17.17
2022-08-31T03:57:57.179Z,17.16
2022-08-31T04:04:20.149Z,17.19
2022-08-31T04:21:04.082Z,17.12
2022-08-31T04:27:27.187Z,17.13
2022-08-31T04:33:47.207Z,17.18
2022-08-31T04:40:10.218Z,17.15
2022-08-31T04:46:30.141Z,17.18
2022-08-31T04:52:58.421Z,17.15
2022-08-31T04:59:13.176Z,17.19
2022-08-31T05:05:36.145Z,17.3
2022-08-31T05:11:56.166Z,17.38
2022-08-31T05:18:19.149Z,17.46
2022-08-31T05:24:39.187Z,17.5
2022-08-31T05:31:02.223Z,17.46
2022-08-31T05:37:23.236Z,17.29
2022-08-31T05:43:45.173Z,17.25
2022-08-31T05:50:08.225Z,17.25
2022-08-31T05:56:28.176Z,17.28
2022-08-31T06:02:51.132Z,17.38
2022-08-31T06:09:11.151Z,17.55
2022-08-31T06:15:31.192Z,17.72
2022-08-31T06:21:54.148Z,17.91
2022-08-31T06:28:14.187Z,18.04
2022-08-31T06:34:37.175Z,18.14
2022-08-31T06:40:57.148Z,18.22
2022-08-31T06:47:23.907Z,18.23
2022-08-31T06:53:40.159Z,18.32
2022-08-31T07:00:03.186Z,18.46
2022-08-31T07:06:23.171Z,18.67
2022-08-31T07:12:46.157Z,18.92
2022-08-31T07:19:06.190Z,19.08
2022-08-31T07:25:29.150Z,19.23
2022-08-31T07:31:49.176Z,19.41
2022-08-31T07:38:12.161Z,19.69
2022-08-31T07:44:32.148Z,19.96
2022-08-31T07:50:56.603Z,20.27
2022-08-31T07:57:15.147Z,20.5
2022-08-31T08:03:38.150Z,20.77
2022-08-31T08:09:58.153Z,21.01
2022-08-31T08:16:21.255Z,21.13
2022-08-31T08:22:52.031Z,21.27
2022-08-31T08:29:04.149Z,21.28
2022-08-31T08:35:24.170Z,21.14
2022-08-31T08:41:47.171Z,21.04
2022-08-31T08:48:07.144Z,20.98
2022-08-31T08:54:30.170Z,20.91
2022-08-31T09:00:50.147Z,20.82
2022-08-31T09:07:13.186Z,20.82
2022-08-31T09:13:33.155Z,20.89
2022-08-31T09:19:56.149Z,20.99
2022-08-31T09:26:16.156Z,21.12
2022-08-31T09:32:39.152Z,21.23
2022-08-31T09:38:59.177Z,21.28
2022-08-31T09:45:22.152Z,21.3
2022-08-31T09:51:42.143Z,21.34
2022-08-31T09:58:05.173Z,21.27
2022-08-31T10:21:10.674Z,22.82
2022-08-31T10:27:30.153Z,23.34
2022-08-31T10:33:53.180Z,23.88
2022-08-31T10:40:13.249Z,24.06
2022-08-31T10:46:36.234Z,24.02
2022-08-31T10:52:59.363Z,23.98
2022-08-31T10:59:19.149Z,24.07
2022-08-31T11:05:39.174Z,24.19
2022-08-31T11:12:02.154Z,24.18
2022-08-31T11:18:22.155Z,24.34
2022-08-31T11:24:45.337Z,24.6
2022-08-31T11:31:05.303Z,24.85
2022-08-31T11:37:28.181Z,24.93
2022-08-31T11:43:48.160Z,24.85
2022-08-31T11:50:11.183Z,24.92
2022-08-31T11:56:31.196Z,25.05
2022-08-31T12:02:54.195Z,25.05
2022-08-31T12:09:14.208Z,25.01
2022-08-31T12:15:37.218Z,25.22
2022-08-31T12:21:57.378Z,25.45
2022-08-31T12:28:20.153Z,25.7
2022-08-31T12:34:41.356Z,26.38
2022-08-31T12:41:04.158Z,26.91
2022-08-31T12:47:24.422Z,27.35
2022-08-31T12:53:47.177Z,27.59
2022-08-31T13:00:07.145Z,27.56
2022-08-31T13:06:30.177Z,27.33
2022-08-31T13:12:50.148Z,26.89
2022-08-31T13:19:13.182Z,27.05
2022-08-31T13:25:33.156Z,27.61
2022-08-31T13:31:56.178Z,28.16
2022-08-31T13:38:16.152Z,28.46
2022-08-31T13:44:39.171Z,28.12
2022-08-31T13:50:59.161Z,27.61
2022-08-31T13:57:22.182Z,27.77
2022-08-31T14:03:42.188Z,28.02
2022-08-31T14:10:05.143Z,28.28
2022-08-31T14:16:25.246Z,28.38
2022-08-31T14:22:48.153Z,28.06
2022-08-31T14:29:08.227Z,27.46
2022-08-31T14:35:32.156Z,27.03
2022-08-31T14:41:52.149Z,26.76
2022-08-31T14:48:15.291Z,26.47
2022-08-31T14:54:35.150Z,26.2
2022-08-31T15:00:58.206Z,26.02
2022-08-31T15:07:18.157Z,25.85
2022-08-31T15:13:41.175Z,25.67
2022-08-31T15:20:01.146Z,25.63
2022-08-31T15:26:24.238Z,25.59
2022-08-31T15:32:44.270Z,25.52
2022-08-31T15:39:07.322Z,25.48
2022-08-31T16:01:55.758Z,25.13
2022-08-31T16:08:16.231Z,24.93
2022-08-31T16:14:39.247Z,24.77
2022-08-31T16:20:59.229Z,24.68
2022-08-31T16:27:22.227Z,24.64
2022-08-31T16:33:42.241Z,24.61
2022-08-31T16:40:05.291Z,24.58
2022-08-31T16:46:39.895Z,24.56
2022-08-31T16:52:48.228Z,24.58
2022-08-31T16:59:08.236Z,24.59
2022-08-31T17:05:31.264Z,24.44
2022-08-31T17:11:54.272Z,24.3
2022-08-31T17:18:14.265Z,24.11
2022-08-31T17:24:34.234Z,23.9
2022-08-31T17:30:57.242Z,23.72
2022-08-31T17:37:17.248Z,23.55
2022-08-31T17:43:40.229Z,23.4
2022-08-31T17:50:00.248Z,23.27
2022-08-31T17:56:25.142Z,23.15
2022-08-31T18:02:43.223Z,23.02
2022-08-31T18:09:06.240Z,22.9
2022-08-31T18:15:26.222Z,22.8
2022-08-31T18:21:49.248Z,22.65
2022-08-31T18:28:09.224Z,22.51
2022-08-31T18:34:33.200Z,22.4
2022-08-31T18:40:53.300Z,22.27
2022-08-31T18:47:16.230Z,22.18
2022-08-31T18:53:36.252Z,22.1
2022-08-31T18:59:59.228Z,22.03
2022-08-31T19:06:19.226Z,21.94
2022-08-31T19:12:43.114Z,21.86
2022-08-31T19:19:03.244Z,21.8
2022-08-31T19:25:26.250Z,21.75
2022-08-31T19:31:46.364Z,21.71
2022-08-31T19:38:10.249Z,21.66
2022-08-31T19:44:53.602Z,21.62
2022-08-31T19:50:57.043Z,21.55
2022-08-31T19:57:16.223Z,21.47
2022-08-31T20:03:39.232Z,21.36
2022-08-31T20:09:59.252Z,21.22
2022-08-31T20:16:22.313Z,21.06
2022-08-31T20:22:42.250Z,20.91
2022-08-31T20:29:05.485Z,20.78
2022-08-31T20:35:25.221Z,20.59
2022-08-31T20:41:48.238Z,20.44
2022-08-31T20:48:08.141Z,20.33
2022-08-31T20:54:31.169Z,20.22
2022-08-31T21:00:51.150Z,20.04
2022-08-31T21:07:14.156Z,19.87
2022-08-31T21:13:34.157Z,19.77
2022-08-31T21:19:57.152Z,19.7
2022-08-31T21:26:17.188Z,19.57
2022-08-31T21:32:40.159Z,19.43
2022-08-31T21:49:06.054Z,19.23
2022-08-31T21:55:26.121Z,19.17
2022-08-31T22:21:00.137Z,18.95
2022-08-31T22:27:20.160Z,18.91
2022-08-31T22:33:47.208Z,18.83
2022-08-31T22:40:03.212Z,18.74
2022-08-31T22:46:26.173Z,18.69
2022-08-31T22:52:46.138Z,18.62
2022-08-31T22:59:09.189Z,18.52
2022-08-31T23:05:29.137Z,18.41
2022-08-31T23:11:52.164Z,18.36
2022-08-31T23:18:12.181Z,18.35
2022-08-31T23:24:35.158Z,18.3
2022-08-31T23:30:55.167Z,18.19
2022-08-31T23:37:18.165Z,18.1
2022-08-31T23:43:38.153Z,17.96
2022-08-31T23:50:01.181Z,17.84
2022-08-31T23:56:21.193Z,17.68
